Time;durP1;ratioP1;P1;durP2;ratioP2;P2;SDS_P1;SDS_P2;PMS_P1;PMS_P2;Temp;Humidity;BMP_temperature;BMP_pressure;BME280_temperature;BME280_humidity;BME280_pressure;Samples;Min_cycle;Max_cycle;Signal;HPM_P1;HPM_P2
2022/08/02 00:01:34;;;;;;;32.90;7.95;;;;;;;13.68;73.70;101670.09;5006232;28;20041;-71
2022/08/02 00:03:59;;;;;;;43.15;9.98;;;;;;;13.74;73.74;101658.56;5010172;28;20048;-72
2022/08/02 00:06:25;;;;;;;30.35;9.40;;;;;;;13.83;72.85;101657.63;5024117;28;20045;-72
2022/08/02 00:08:52;;;;;;;28.10;7.50;;;;;;;13.56;73.41;101666.81;5024819;28;20052;-71
2022/08/02 00:11:18;;;;;;;26.15;8.52;;;;;;;13.79;73.02;101672.56;5012908;28;20033;-71
2022/08/02 00:13:44;;;;;;;30.85;9.00;;;;;;;13.85;72.45;101661.03;5013640;28;20028;-72
2022/08/02 00:16:09;;;;;;;24.48;9.27;;;;;;;13.93;72.34;101660.22;5013657;28;20013;-71
2022/08/02 00:18:35;;;;;;;26.50;9.13;;;;;;;13.85;72.36;101666.47;5031438;28;20034;-72
2022/08/02 00:21:00;;;;;;;33.03;9.70;;;;;;;13.53;72.98;101663.53;5013490;28;20025;-71
2022/08/02 00:23:25;;;;;;;30.88;8.73;;;;;;;13.42;74.37;101663.78;5013528;28;20021;-72
2022/08/02 00:25:51;;;;;;;30.50;9.43;;;;;;;13.52;74.30;101668.13;5013690;28;20021;-71
2022/08/02 00:28:16;;;;;;;30.92;8.40;;;;;;;13.51;73.82;101657.41;5030626;28;20024;-71
2022/08/02 00:30:41;;;;;;;26.63;8.95;;;;;;;13.54;73.69;101657.91;5012728;28;20024;-71
2022/08/02 00:33:07;;;;;;;25.83;8.13;;;;;;;13.40;74.99;101657.63;5010186;28;20018;-72
2022/08/02 00:35:34;;;;;;;30.50;8.18;;;;;;;13.33;74.87;101654.69;5009587;28;20029;-71
2022/08/02 00:37:59;;;;;;;32.88;9.38;;;;;;;13.28;74.92;101655.16;5009279;28;20364;-71
2022/08/02 00:40:25;;;;;;;24.30;7.88;;;;;;;13.27;75.16;101650.72;5014447;28;20075;-71
2022/08/02 00:43:09;;;;;;;17.38;6.95;;;;;;;13.14;76.05;101644.81;5023216;28;20079;-72
2022/08/02 00:45:37;;;;;;;21.48;6.97;;;;;;;13.11;75.42;101650.56;5012604;28;20021;-72
2022/08/02 00:48:04;;;;;;;23.85;7.30;;;;;;;13.09;75.80;101647.13;5013041;28;20029;-71
2022/08/02 00:50:31;;;;;;;27.08;7.97;;;;;;;13.14;75.27;101655.69;5002205;28;20395;-71
2022/08/02 00:52:57;;;;;;;17.17;7.22;;;;;;;13.05;74.85;101656.63;5030787;28;20021;-71
2022/08/02 00:55:22;;;;;;;28.95;8.23;;;;;;;12.97;75.83;101659.25;5028788;28;20064;-72
2022/08/02 00:57:48;;;;;;;18.10;6.47;;;;;;;13.04;74.90;101665.81;5009570;28;20300;-71
2022/08/02 01:00:15;;;;;;;19.67;6.45;;;;;;;13.05;75.38;101667.50;5012237;28;20071;-71
2022/08/02 01:02:40;;;;;;;19.17;5.72;;;;;;;13.05;75.75;101672.94;5012561;28;20032;-72
2022/08/02 01:05:06;;;;;;;17.80;5.38;;;;;;;13.10;75.34;101670.59;5018753;28;20056;-71
2022/08/02 01:07:31;;;;;;;25.05;5.80;;;;;;;12.82;75.84;101671.66;4996000;28;20030;-72
2022/08/02 01:09:57;;;;;;;16.50;5.25;;;;;;;12.68;77.15;101675.75;5013757;28;20044;-71
2022/08/02 01:12:23;;;;;;;22.77;5.40;;;;;;;12.81;78.58;101680.84;5012800;28;20025;-72
2022/08/02 01:14:50;;;;;;;10.52;4.22;;;;;;;12.72;76.88;101680.75;5012435;28;20134;-71
2022/08/02 01:17:27;;;;;;;17.77;3.97;;;;;;;12.60;77.24;101684.69;5028853;28;20021;-71
2022/08/02 01:20:22;;;;;;;22.25;5.13;;;;;;;12.49;78.23;101682.16;5010912;28;20029;-71
2022/08/02 01:22:59;;;;;;;15.43;4.22;;;;;;;12.36;78.34;101681.66;5012383;28;20030;-71
2022/08/02 01:25:26;;;;;;;19.80;4.97;;;;;;;12.56;78.18;101688.69;5018059;28;20025;-71
2022/08/02 01:28:29;;;;;;;15.23;4.30;;;;;;;12.74;77.58;101684.16;4995825;28;20052;-72
2022/08/02 01:31:06;;;;;;;16.67;4.57;;;;;;;12.57;77.51;101684.97;5015501;28;20072;-72
2022/08/02 01:33:39;;;;;;;16.23;3.90;;;;;;;12.69;77.08;101682.91;5018016;28;20087;-72
2022/08/02 01:36:10;;;;;;;12.75;3.97;;;;;;;12.76;77.88;101682.13;5012468;28;20113;-72
2022/08/02 01:38:40;;;;;;;18.25;4.43;;;;;;;12.77;76.37;101675.69;5011283;28;20029;-71
2022/08/02 01:41:12;;;;;;;21.23;4.55;;;;;;;12.74;76.52;101681.44;5006399;28;20030;-72
2022/08/02 01:43:41;;;;;;;23.00;4.88;;;;;;;12.37;78.03;101672.50;5016325;28;20033;-71
2022/08/02 01:46:09;;;;;;;12.63;4.05;;;;;;;12.55;77.34;101680.69;4996569;28;20125;-71
2022/08/02 01:48:35;;;;;;;7.70;3.85;;;;;;;12.49;77.46;101683.00;5012970;28;20026;-71
2022/08/02 01:51:02;;;;;;;14.98;4.05;;;;;;;12.56;77.00;101677.81;5016578;28;20176;-71
2022/08/02 01:53:29;;;;;;;15.15;3.65;;;;;;;12.33;77.59;101682.81;5016149;28;20025;-71
2022/08/02 01:55:58;;;;;;;19.70;5.22;;;;;;;12.37;78.23;101683.34;5012825;28;20033;-71
2022/08/02 01:58:26;;;;;;;18.15;4.68;;;;;;;12.45;78.51;101686.16;5000497;28;20022;-72
2022/08/02 02:00:56;;;;;;;19.85;5.07;;;;;;;12.51;78.32;101680.13;5001667;28;20049;-72
2022/08/02 02:03:23;;;;;;;20.95;4.57;;;;;;;12.53;78.09;101683.56;5014167;28;20089;-71
2022/08/02 02:05:52;;;;;;;15.57;4.20;;;;;;;12.51;77.75;101685.56;5016353;28;20022;-71
2022/08/02 02:08:39;;;;;;;20.02;4.13;;;;;;;12.55;77.35;101686.13;5006646;28;20025;-72
2022/08/02 02:11:05;;;;;;;18.08;4.30;;;;;;;12.29;77.19;101691.41;5025756;28;20064;-71
2022/08/02 02:13:32;;;;;;;13.88;3.92;;;;;;;12.38;77.12;101691.34;5021233;28;20112;-72
2022/08/02 02:16:02;;;;;;;16.25;3.80;;;;;;;12.37;76.52;101699.66;5000253;28;20037;-71
2022/08/02 02:18:29;;;;;;;9.85;3.95;;;;;;;12.35;77.03;101701.66;5014551;28;20022;-71
2022/08/02 02:20:56;;;;;;;17.55;4.15;;;;;;;12.40;77.36;101694.78;5023099;28;20025;-71
2022/08/02 02:23:21;;;;;;;14.60;3.72;;;;;;;12.38;77.61;101695.91;5011247;28;20026;-72
2022/08/02 02:25:48;;;;;;;15.18;5.00;;;;;;;12.40;78.00;101697.50;5019332;28;20032;-71
2022/08/02 02:28:23;;;;;;;17.52;5.05;;;;;;;12.40;76.98;101686.66;5020191;28;20021;-71
2022/08/02 02:30:52;;;;;;;11.40;4.13;;;;;;;12.39;77.24;101686.81;5011961;28;20080;-72
2022/08/02 02:33:19;;;;;;;16.02;5.32;;;;;;;12.32;77.40;101680.22;5010055;28;20032;-71
2022/08/02 02:35:46;;;;;;;22.67;4.60;;;;;;;12.21;78.33;101673.16;5011354;28;20125;-72
2022/08/02 02:38:13;;;;;;;15.48;4.10;;;;;;;12.14;78.31;101667.47;5025923;28;20068;-71
2022/08/02 02:40:40;;;;;;;18.17;5.30;;;;;;;12.15;78.38;101663.75;5010386;28;20018;-72
2022/08/02 02:43:08;;;;;;;22.17;4.93;;;;;;;12.11;78.24;101664.19;4995092;28;20030;-71
2022/08/02 02:45:36;;;;;;;24.58;5.80;;;;;;;12.08;78.60;101662.63;5013499;28;20045;-72
2022/08/02 02:48:03;;;;;;;17.25;5.35;;;;;;;11.97;78.03;101660.09;5015348;28;20049;-71
2022/08/02 02:50:29;;;;;;;14.45;4.65;;;;;;;12.01;78.11;101658.78;5008804;28;20116;-72
2022/08/02 02:52:56;;;;;;;26.15;6.65;;;;;;;11.94;78.29;101660.41;4998712;28;20141;-71
2022/08/02 02:55:23;;;;;;;25.42;4.90;;;;;;;11.90;78.56;101658.97;5004015;28;20036;-72
2022/08/02 02:57:49;;;;;;;18.98;6.10;;;;;;;11.82;78.48;101656.16;5021865;28;20032;-71
2022/08/02 03:00:14;;;;;;;16.45;4.80;;;;;;;11.83;78.54;101658.72;5005686;28;20026;-72
2022/08/02 03:02:44;;;;;;;16.35;5.07;;;;;;;11.83;78.40;101652.44;4996655;28;20025;-72
2022/08/02 03:05:11;;;;;;;11.60;5.03;;;;;;;11.81;77.65;101657.16;4997604;28;20075;-71
2022/08/02 03:07:37;;;;;;;10.48;4.97;;;;;;;11.76;78.31;101659.41;5003971;28;20018;-71
2022/08/02 03:10:04;;;;;;;16.77;5.38;;;;;;;11.77;78.24;101658.41;5026831;28;20032;-71
2022/08/02 03:12:30;;;;;;;11.27;4.28;;;;;;;11.79;78.55;101656.38;4994941;28;20405;-71
2022/08/02 03:15:01;;;;;;;16.45;4.57;;;;;;;11.74;78.30;101653.28;5026804;28;20029;-71
2022/08/02 03:17:43;;;;;;;15.93;4.90;;;;;;;11.74;78.24;101653.28;5011501;28;20029;-71
2022/08/02 03:20:10;;;;;;;;;;;;;;;11.73;78.51;101656.97;5014119;28;20037;-71
2022/08/02 03:22:35;;;;;;;21.65;5.25;;;;;;;11.68;79.52;101655.56;5015326;28;19913;-71
2022/08/02 03:25:00;;;;;;;22.20;5.50;;;;;;;11.73;78.98;101646.13;5018894;28;20032;-71
2022/08/02 03:27:26;;;;;;;17.92;4.65;;;;;;;11.73;79.68;101651.53;5003837;28;20028;-72
2022/08/02 03:29:51;;;;;;;17.10;4.72;;;;;;;11.76;79.23;101656.69;5007143;28;20036;-71
2022/08/02 03:32:17;;;;;;;21.63;5.32;;;;;;;11.55;79.52;101655.03;5007004;28;20109;-71
2022/08/02 03:34:42;;;;;;;15.32;4.60;;;;;;;11.59;79.11;101651.00;5012654;28;20025;-72
2022/08/02 03:37:08;;;;;;;14.80;3.83;;;;;;;11.65;78.74;101649.56;5019104;28;20109;-72
2022/08/02 03:39:34;;;;;;;10.73;4.15;;;;;;;11.74;79.45;101653.28;5014461;28;20036;-71
2022/08/02 03:42:00;;;;;;;12.52;3.85;;;;;;;11.78;79.46;101654.69;5003189;28;20125;-71
2022/08/02 03:44:26;;;;;;;18.70;4.53;;;;;;;11.81;78.99;101654.44;5001354;28;20022;-71
2022/08/02 03:46:52;;;;;;;28.80;5.32;;;;;;;11.86;79.28;101646.69;5011970;28;20028;-71
2022/08/02 03:49:19;;;;;;;18.10;5.05;;;;;;;11.86;78.68;101646.69;5021622;28;20117;-71
2022/08/02 03:51:45;;;;;;;16.23;4.72;;;;;;;11.85;78.75;101650.41;5007310;28;20029;-71
2022/08/02 03:54:11;;;;;;;14.80;4.20;;;;;;;11.87;78.31;101654.72;5013470;28;20032;-71
2022/08/02 03:56:36;;;;;;;12.27;4.65;;;;;;;11.81;78.90;101649.88;5008131;28;20109;-71
2022/08/02 03:59:20;;;;;;;20.23;4.57;;;;;;;11.69;78.86;101635.56;5027694;28;20377;-72
2022/08/02 04:01:45;;;;;;;15.40;4.20;;;;;;;11.71;78.95;101643.56;5016808;28;20022;-71
2022/08/02 04:04:11;;;;;;;12.98;4.15;;;;;;;11.78;79.05;101631.13;5023587;28;20033;-71
2022/08/02 04:06:37;;;;;;;18.23;4.65;;;;;;;11.83;79.23;101636.13;5012877;28;20036;-71
2022/08/02 04:09:02;;;;;;;15.68;5.75;;;;;;;11.86;78.61;101635.84;5026381;28;20036;-72
2022/08/02 04:11:31;;;;;;;19.85;4.72;;;;;;;11.60;81.13;101644.56;5010924;28;20048;-72
2022/08/02 04:13:59;;;;;;;12.68;4.75;;;;;;;11.67;81.40;101658.41;5008665;28;20030;-72
2022/08/02 04:16:36;;;;;;;16.65;5.72;;;;;;;11.78;81.46;101649.25;4997491;28;20028;-71
2022/08/02 04:19:03;;;;;;;15.60;4.90;;;;;;;11.99;81.29;101647.22;4992202;28;20017;-71
2022/08/02 04:21:32;;;;;;;15.85;4.32;;;;;;;11.84;80.91;101654.13;4995040;28;20060;-72
2022/08/02 04:24:01;;;;;;;17.08;4.38;;;;;;;11.87;80.68;101659.28;5014563;28;20040;-73
2022/08/02 04:26:26;;;;;;;21.45;5.35;;;;;;;11.99;80.00;101663.50;4984454;28;20045;-71
2022/08/02 04:28:53;;;;;;;18.42;5.60;;;;;;;12.12;80.60;101658.59;4995621;28;20096;-70
2022/08/02 04:31:19;;;;;;;19.75;5.47;;;;;;;12.19;80.57;101654.31;5022112;28;20430;-71
2022/08/02 04:33:45;;;;;;;18.85;5.28;;;;;;;12.04;80.41;101655.78;5017235;28;20025;-70
2022/08/02 04:36:13;;;;;;;16.95;5.57;;;;;;;12.15;79.67;101669.16;5020684;28;20033;-71
2022/08/02 04:38:40;;;;;;;17.38;4.25;;;;;;;12.09;79.41;101664.31;5005412;28;20014;-72
2022/08/02 04:41:05;;;;;;;19.80;5.68;;;;;;;12.12;80.17;101674.88;5013586;28;20030;-72
2022/08/02 04:43:31;;;;;;;20.58;4.70;;;;;;;12.09;80.26;101680.63;5008305;28;20389;-73
2022/08/02 04:45:56;;;;;;;20.63;5.07;;;;;;;12.02;79.78;101682.22;5006811;28;20558;-72
2022/08/02 04:48:22;;;;;;;19.02;5.05;;;;;;;11.83;80.91;101679.56;5003955;28;20026;-72
2022/08/02 04:50:47;;;;;;;22.83;5.60;;;;;;;11.59;82.56;101678.13;4998080;28;20034;-73
2022/08/02 04:53:13;;;;;;;24.95;5.65;;;;;;;11.89;82.59;101668.13;5008546;28;20029;-72
2022/08/02 04:55:38;;;;;;;14.75;6.20;;;;;;;12.11;80.50;101659.59;5001556;28;20044;-74
2022/08/02 04:58:03;;;;;;;17.70;5.70;;;;;;;11.92;81.85;101673.22;5002593;28;20048;-74
2022/08/02 05:00:29;;;;;;;24.20;5.65;;;;;;;12.06;81.94;101680.03;5017615;28;20026;-74
2022/08/02 05:02:56;;;;;;;21.63;6.65;;;;;;;12.07;82.14;101677.22;5013401;28;20017;-75
2022/08/02 05:05:21;;;;;;;21.13;5.95;;;;;;;12.00;82.31;101680.63;5020552;28;20025;-75
2022/08/02 05:07:47;;;;;;;17.73;5.35;;;;;;;12.10;81.95;101670.63;5023489;28;20152;-71
2022/08/02 05:10:12;;;;;;;21.70;6.40;;;;;;;12.09;81.77;101672.47;5003857;28;20083;-72
2022/08/02 05:12:38;;;;;;;25.67;6.88;;;;;;;11.96;83.02;101674.66;5016418;28;20075;-73
2022/08/02 05:15:05;;;;;;;16.58;6.20;;;;;;;12.09;82.52;101668.91;5030130;28;20029;-72
2022/08/02 05:17:30;;;;;;;22.80;7.03;;;;;;;12.01;83.49;101664.22;4997847;28;20028;-72
2022/08/02 05:19:56;;;;;;;20.02;7.10;;;;;;;12.26;83.07;101664.53;5010180;28;20037;-72
2022/08/02 05:22:21;;;;;;;32.60;7.30;;;;;;;12.41;82.90;101663.06;4999324;28;20026;-73
2022/08/02 05:24:47;;;;;;;28.77;7.60;;;;;;;12.66;81.69;101667.78;5005405;28;20047;-70
2022/08/02 05:27:12;;;;;;;29.52;7.30;;;;;;;12.62;81.98;101671.78;5019399;28;20029;-73
2022/08/02 05:29:38;;;;;;;19.35;6.80;;;;;;;12.58;82.73;101664.94;5012852;28;20084;-73
2022/08/02 05:32:03;;;;;;;28.10;6.30;;;;;;;12.89;81.80;101656.44;4994882;28;20022;-73
2022/08/02 05:34:29;;;;;;;29.63;7.65;;;;;;;12.81;81.41;101667.25;5003705;28;20018;-73
2022/08/02 05:36:54;;;;;;;23.48;6.82;;;;;;;13.00;81.43;101669.81;4993958;28;20052;-73
2022/08/02 05:39:19;;;;;;;20.75;6.03;;;;;;;13.17;81.08;101660.81;5009088;28;20045;-74
2022/08/02 05:41:45;;;;;;;22.05;6.65;;;;;;;13.29;80.77;101665.03;5003471;28;20380;-72
2022/08/02 05:44:10;;;;;;;23.50;6.38;;;;;;;13.48;79.91;101668.59;5009671;28;20026;-74
2022/08/02 05:46:36;;;;;;;22.35;7.88;;;;;;;13.58;79.35;101670.22;5012808;28;20056;-74
2022/08/02 05:49:03;;;;;;;28.63;7.18;;;;;;;13.51;79.36;101673.72;5024681;28;20029;-74
2022/08/02 05:51:35;;;;;;;24.45;6.03;;;;;;;13.74;79.52;101658.56;4993012;28;20032;-73
2022/08/02 05:54:30;;;;;;;26.67;5.82;;;;;;;14.05;78.42;101663.53;4993133;28;20072;-72
2022/08/02 05:57:03;;;;;;;33.20;7.05;;;;;;;13.94;77.64;101671.97;4993009;28;20030;-73
2022/08/02 05:59:32;;;;;;;28.73;7.07;;;;;;;14.13;76.74;101664.44;5013728;28;20025;-73
2022/08/02 06:02:02;;;;;;;25.40;5.60;;;;;;;14.28;76.41;101672.88;5003292;28;20037;-72
2022/08/02 06:04:47;;;;;;;27.15;5.20;;;;;;;14.28;75.67;101667.41;5008151;28;20030;-72
2022/08/02 06:07:13;;;;;;;41.92;7.05;;;;;;;14.19;75.96;101673.81;4991939;28;20026;-73
2022/08/02 06:09:39;;;;;;;31.80;5.25;;;;;;;14.15;75.85;101661.56;5018891;28;20060;-71
2022/08/02 06:12:11;;;;;;;24.38;5.22;;;;;;;14.20;75.77;101659.19;5009927;28;20037;-73
2022/08/02 06:14:36;;;;;;;;;;;;;;;14.33;75.28;101659.59;5012707;28;20190;-74
2022/08/02 06:17:04;;;;;;;18.63;5.22;;;;;;;14.63;74.93;101665.53;5027128;28;19909;-73
2022/08/02 06:19:31;;;;;;;23.73;4.63;;;;;;;14.68;73.79;101663.16;5009814;28;20026;-72
2022/08/02 06:22:13;;;;;;;26.63;4.93;;;;;;;15.01;72.26;101663.25;4999964;28;20028;-74
2022/08/02 06:24:43;;;;;;;23.35;4.30;;;;;;;15.19;71.66;101655.75;5004965;28;20037;-72
2022/08/02 06:27:10;;;;;;;24.65;4.80;;;;;;;14.89;71.58;101666.28;5006266;28;20547;-74
2022/08/02 06:29:36;;;;;;;25.23;4.07;;;;;;;14.70;72.12;101661.13;5023836;28;20014;-74
2022/08/02 06:32:02;;;;;;;24.52;3.78;;;;;;;15.04;71.10;101662.91;5008290;28;20021;-74
2022/08/02 06:34:28;;;;;;;19.83;4.15;;;;;;;15.23;69.50;101673.50;5028261;28;20021;-74
2022/08/02 06:37:11;;;;;;;14.40;3.22;;;;;;;15.07;70.28;101668.88;5009522;28;20024;-71
2022/08/02 06:39:46;;;;;;;21.95;3.92;;;;;;;15.20;69.14;101676.56;5001010;28;20032;-70
2022/08/02 06:42:17;;;;;;;20.67;3.38;;;;;;;15.14;68.47;101669.06;4997414;28;20025;-69
2022/08/02 06:44:42;;;;;;;20.55;3.35;;;;;;;14.88;69.21;101664.59;5018796;28;20423;-70
2022/08/02 06:47:08;;;;;;;15.43;2.42;;;;;;;15.22;68.79;101665.50;5020371;28;20017;-69
2022/08/02 06:49:33;;;;;;;21.65;4.85;;;;;;;15.15;68.45;101670.75;5014446;28;20108;-69
2022/08/02 06:51:59;;;;;;;18.33;3.00;;;;;;;15.25;68.44;101665.97;5003208;28;20468;-73
2022/08/02 06:54:24;;;;;;;22.05;3.40;;;;;;;15.39;68.46;101665.31;5002267;28;20021;-70
2022/08/02 06:56:50;;;;;;;15.77;3.47;;;;;;;15.44;67.76;101665.66;5008834;28;20116;-71
2022/08/02 06:59:15;;;;;;;19.50;5.38;;;;;;;15.28;68.79;101665.66;4981801;28;20051;-72
2022/08/02 07:01:40;;;;;;;14.60;2.90;;;;;;;15.31;68.08;101670.75;4996500;28;20850;-72
2022/08/02 07:04:07;;;;;;;15.63;3.05;;;;;;;15.60;67.40;101669.41;4996352;28;20538;-76
2022/08/02 07:06:32;;;;;;;19.83;2.88;;;;;;;15.94;66.49;101661.88;4995741;28;20021;-74
2022/08/02 07:08:58;;;;;;;20.05;3.22;;;;;;;16.10;66.06;101665.59;5014114;28;20024;-74
2022/08/02 07:11:23;;;;;;;21.98;2.85;;;;;;;15.98;66.33;101667.84;5001420;28;20056;-71
2022/08/02 07:13:49;;;;;;;23.80;3.83;;;;;;;15.72;67.28;101655.28;4995875;28;20028;-70
2022/08/02 07:16:14;;;;;;;12.55;2.60;;;;;;;15.77;67.20;101645.69;5005929;28;20121;-76
2022/08/02 07:18:40;;;;;;;22.33;5.63;;;;;;;15.82;66.31;101646.88;5006127;28;20022;-70
2022/08/02 07:21:05;;;;;;;22.25;4.07;;;;;;;15.89;65.74;101657.97;4998192;28;20033;-72
2022/08/02 07:23:31;;;;;;;21.10;3.70;;;;;;;16.02;65.50;101658.28;4995121;28;20026;-72
2022/08/02 07:25:57;;;;;;;20.15;3.70;;;;;;;15.98;66.06;101652.31;5015730;28;20021;-69
2022/08/02 07:28:23;;;;;;;23.35;3.38;;;;;;;16.14;66.55;101640.47;5015162;28;20026;-77
2022/08/02 07:30:48;;;;;;;16.33;3.83;;;;;;;16.25;64.46;101642.00;5009794;28;20039;-71
2022/08/02 07:33:14;;;;;;;14.05;3.17;;;;;;;16.32;65.57;101637.50;5008050;28;20038;-70
2022/08/02 07:35:39;;;;;;;19.85;2.97;;;;;;;16.09;65.12;101642.03;5008009;28;20021;-71
2022/08/02 07:38:06;;;;;;;21.27;4.45;;;;;;;16.43;64.40;101626.19;5014420;28;20021;-71
2022/08/02 07:40:31;;;;;;;23.17;3.95;;;;;;;16.49;64.42;101633.66;4994520;28;20025;-75
2022/08/02 07:42:57;;;;;;;22.38;3.13;;;;;;;16.65;64.11;101637.34;5013995;28;20662;-73
2022/08/02 07:45:23;;;;;;;15.65;3.90;;;;;;;16.76;61.46;101639.72;4997264;28;20193;-71
2022/08/02 07:47:49;;;;;;;20.58;3.90;;;;;;;16.67;63.88;101640.75;4991131;28;20017;-77
2022/08/02 07:50:17;;;;;;;14.90;3.30;;;;;;;16.90;62.61;101647.16;5003970;28;20052;-69
2022/08/02 07:52:44;;;;;;;8.65;2.75;;;;;;;16.99;61.79;101650.69;4996483;28;20024;-72
2022/08/02 07:55:11;;;;;;;18.25;2.95;;;;;;;17.29;61.82;101637.97;4986569;28;20026;-77
2022/08/02 07:57:38;;;;;;;15.75;2.80;;;;;;;17.59;59.31;101642.47;5007298;28;20035;-72
2022/08/02 08:00:05;;;;;;;21.20;3.00;;;;;;;17.34;59.52;101632.78;5005651;28;20025;-73
2022/08/02 08:02:31;;;;;;;15.18;2.70;;;;;;;17.98;59.23;101629.63;4995822;28;20021;-76
2022/08/02 08:04:57;;;;;;;7.72;2.55;;;;;;;17.62;60.21;101636.66;5005798;28;20018;-72
2022/08/02 08:07:23;;;;;;;15.93;3.45;;;;;;;17.97;59.24;101634.25;5006807;28;20018;-75
2022/08/02 08:09:49;;;;;;;18.02;3.22;;;;;;;17.95;60.04;101630.84;5003578;28;20407;-74
2022/08/02 08:12:16;;;;;;;14.25;3.47;;;;;;;18.45;58.43;101626.47;5007745;28;20064;-71
2022/08/02 08:14:41;;;;;;;23.10;3.85;;;;;;;18.50;58.18;101624.00;4981121;28;20037;-77
2022/08/02 08:17:07;;;;;;;15.77;3.42;;;;;;;18.74;57.62;101620.09;5007319;28;20025;-76
2022/08/02 08:19:33;;;;;;;12.05;3.63;;;;;;;18.67;57.04;101617.28;5016731;28;20022;-72
2022/08/02 08:22:02;;;;;;;30.98;3.88;;;;;;;18.83;56.58;101612.59;5018038;28;20063;-74
2022/08/02 08:24:28;;;;;;;16.88;3.65;;;;;;;18.58;57.40;101621.16;5004270;28;20499;-71
2022/08/02 08:26:54;;;;;;;20.88;3.85;;;;;;;19.02;56.31;101611.97;4994942;28;20025;-74
2022/08/02 08:29:20;;;;;;;16.35;3.40;;;;;;;18.96;55.81;101599.88;4996058;28;20038;-75
2022/08/02 08:31:46;;;;;;;18.45;3.50;;;;;;;18.84;55.30;101595.09;4987338;28;20024;-73
2022/08/02 08:34:11;;;;;;;17.95;3.35;;;;;;;19.27;55.29;101592.34;5009769;28;20025;-74
2022/08/02 08:36:37;;;;;;;21.50;3.42;;;;;;;19.15;54.28;101584.63;5022405;28;20017;-72
2022/08/02 08:39:03;;;;;;;17.95;3.30;;;;;;;19.36;55.44;101581.00;5010928;28;20031;-71
2022/08/02 08:41:28;;;;;;;19.40;3.65;;;;;;;19.75;53.10;101585.97;5004534;28;20030;-79
2022/08/02 08:43:54;;;;;;;16.80;3.15;;;;;;;19.33;53.48;101586.06;5005789;28;20021;-70
2022/08/02 08:46:31;;;;;;;17.38;3.22;;;;;;;19.28;54.30;101583.06;4995492;28;20060;-73
2022/08/02 08:49:05;;;;;;;22.40;3.85;;;;;;;19.67;53.27;101582.53;5008499;28;20025;-72
2022/08/02 08:51:36;;;;;;;18.13;2.95;;;;;;;19.58;53.31;101579.09;5001053;28;20507;-75
2022/08/02 08:54:03;;;;;;;22.38;3.17;;;;;;;19.33;52.34;101581.41;5014067;28;20037;-71
2022/08/02 08:56:34;;;;;;;16.67;3.95;;;;;;;19.69;53.46;101575.81;5005256;28;20387;-71
2022/08/02 08:59:00;;;;;;;14.95;3.33;;;;;;;19.72;53.11;101569.06;5014331;28;20022;-70
2022/08/02 09:01:26;;;;;;;12.55;2.70;;;;;;;19.71;53.06;101579.19;5003619;28;20051;-76
2022/08/02 09:03:51;;;;;;;17.80;3.05;;;;;;;20.10;52.89;101572.25;5016120;28;20028;-72
2022/08/02 09:06:17;;;;;;;20.23;3.20;;;;;;;19.72;52.42;101580.88;4992485;28;20026;-76
2022/08/02 09:08:42;;;;;;;18.65;2.92;;;;;;;20.07;52.05;101583.63;5007464;28;20374;-71
2022/08/02 09:11:13;;;;;;;14.75;2.63;;;;;;;19.97;52.02;101578.50;4998763;28;20028;-70
2022/08/02 09:13:48;;;;;;;14.68;3.10;;;;;;;19.93;51.34;101581.88;4999878;28;20044;-70
2022/08/02 09:16:13;;;;;;;12.07;2.90;;;;;;;20.05;50.55;101583.00;5005963;28;20318;-76
2022/08/02 09:18:44;;;;;;;15.13;2.50;;;;;;;20.35;50.85;101574.47;4992025;28;20028;-71
2022/08/02 09:21:10;;;;;;;12.20;2.90;;;;;;;20.20;50.96;101564.44;5005458;28;20099;-69
2022/08/02 09:23:41;;;;;;;18.85;2.80;;;;;;;20.46;50.33;101571.13;5003157;28;20049;-80
2022/08/02 09:26:09;;;;;;;13.27;2.85;;;;;;;20.43;50.34;101560.53;5013762;28;20041;-70
2022/08/02 09:28:37;;;;;;;16.17;2.67;;;;;;;20.59;49.60;101554.66;5011992;28;20116;-75
2022/08/02 09:31:10;;;;;;;15.45;2.90;;;;;;;20.09;51.71;101558.69;5008283;28;20036;-74
2022/08/02 09:33:37;;;;;;;10.63;2.28;;;;;;;20.61;50.54;101552.56;5007329;28;20026;-76
2022/08/02 09:36:07;;;;;;;15.93;2.70;;;;;;;20.73;49.33;101559.13;5007020;28;20040;-76
2022/08/02 09:38:34;;;;;;;11.88;3.05;;;;;;;20.91;49.49;101552.19;5010726;28;20024;-74
2022/08/02 09:41:00;;;;;;;16.08;2.70;;;;;;;21.15;49.47;101548.81;5003536;28;20025;-73
2022/08/02 09:43:40;;;;;;;15.32;2.30;;;;;;;21.05;49.86;101543.72;5011020;28;20041;-73
2022/08/02 09:46:19;;;;;;;11.05;2.55;;;;;;;21.52;48.57;101547.38;4998382;28;20018;-74
2022/08/02 09:48:55;;;;;;;16.67;3.38;;;;;;;21.26;48.17;101559.22;5004935;28;20013;-76
2022/08/02 09:51:22;;;;;;;16.38;2.88;;;;;;;21.02;49.68;101559.84;4998911;28;20112;-71
2022/08/02 09:53:50;;;;;;;7.53;2.15;;;;;;;21.45;49.03;101553.91;5011051;28;20119;-71
2022/08/02 09:56:17;;;;;;;11.57;2.83;;;;;;;21.24;48.26;101542.03;5002243;28;20061;-71
2022/08/02 09:58:42;;;;;;;14.93;2.90;;;;;;;22.10;47.12;101552.09;4988921;28;20025;-71
2022/08/02 10:01:08;;;;;;;12.35;2.70;;;;;;;21.97;47.52;101543.84;5015968;28;20152;-71
2022/08/02 10:03:33;;;;;;;16.45;3.35;;;;;;;21.77;48.04;101553.00;4989571;28;20021;-76
2022/08/02 10:06:00;;;;;;;15.70;3.08;;;;;;;21.90;48.25;101547.47;5005485;28;20025;-70
2022/08/02 10:08:27;;;;;;;17.80;3.47;;;;;;;22.36;47.28;101543.69;5007737;28;20026;-75
2022/08/02 10:10:59;;;;;;;14.98;3.65;;;;;;;22.61;46.32;101545.69;4996847;28;20040;-76
2022/08/02 10:13:33;;;;;;;6.80;2.17;;;;;;;22.39;47.04;101543.28;5007335;28;20022;-74
2022/08/02 10:15:59;;;;;;;15.90;3.15;;;;;;;22.88;46.23;101544.47;5008731;28;20025;-75
2022/08/02 10:18:24;;;;;;;14.93;2.83;;;;;;;23.20;43.85;101547.22;5014422;28;20018;-78
2022/08/02 10:20:54;;;;;;;11.52;2.65;;;;;;;23.05;44.83;101552.25;4999154;28;20021;-74
2022/08/02 10:23:21;;;;;;;8.27;1.90;;;;;;;22.48;44.66;101547.47;4994327;28;20177;-71
2022/08/02 10:25:49;;;;;;;8.82;2.92;;;;;;;22.52;45.03;101549.78;5008503;28;20022;-75
2022/08/02 10:28:15;;;;;;;10.07;2.75;;;;;;;22.86;43.78;101541.09;4995497;28;20026;-74
2022/08/02 10:30:44;;;;;;;9.18;2.10;;;;;;;22.85;43.98;101539.38;5016434;28;20022;-75
2022/08/02 10:33:11;;;;;;;14.35;2.90;;;;;;;22.46;44.93;101546.00;5002156;28;20401;-75
2022/08/02 10:35:39;;;;;;;18.23;2.85;;;;;;;22.70;43.71;101538.88;5008910;28;20018;-76
2022/08/02 10:38:09;;;;;;;11.52;2.83;;;;;;;23.23;42.86;101546.78;4999775;28;20048;-75
2022/08/02 10:40:50;;;;;;;14.68;2.33;;;;;;;23.13;42.13;101546.44;4995269;28;20037;-75
2022/08/02 10:43:31;;;;;;;9.77;2.50;;;;;;;23.35;41.56;101528.38;5023109;28;20025;-75
2022/08/02 10:46:22;;;;;;;10.40;2.30;;;;;;;24.10;40.73;101531.84;5021172;28;20025;-75
2022/08/02 10:49:07;;;;;;;;;;;;;;;23.84;40.25;101515.56;5023709;28;20048;-75
2022/08/02 10:51:50;;;;;;;10.07;2.78;;;;;;;23.77;40.57;101523.09;5019504;28;20271;-75
2022/08/02 10:54:21;;;;;;;20.65;2.97;;;;;;;24.31;38.69;101510.28;4993221;28;20037;-77
2022/08/02 10:56:54;;;;;;;16.30;2.70;;;;;;;24.48;39.96;101516.88;5003079;28;20026;-75
2022/08/02 10:59:31;;;;;;;8.93;2.88;;;;;;;24.45;39.51;101506.31;5019175;28;20018;-75
2022/08/02 11:02:02;;;;;;;9.02;1.60;;;;;;;25.21;38.13;101503.84;5014823;28;20166;-75
2022/08/02 11:04:48;;;;;;;9.68;2.65;;;;;;;25.85;38.33;101493.69;5009314;28;20042;-75
2022/08/02 11:07:19;;;;;;;8.68;2.45;;;;;;;25.87;37.35;101491.50;5008321;28;20040;-76
2022/08/02 11:09:46;;;;;;;13.43;2.58;;;;;;;24.56;36.80;101502.72;5005198;28;20025;-74
2022/08/02 11:12:14;;;;;;;13.80;2.53;;;;;;;24.51;37.84;101483.19;5008720;28;20021;-75
2022/08/02 11:14:42;;;;;;;9.57;2.30;;;;;;;24.47;37.12;101483.91;4990339;28;20083;-75
2022/08/02 11:17:13;;;;;;;16.08;2.50;;;;;;;24.74;37.84;101476.03;5000875;28;20027;-75
2022/08/02 11:20:10;;;;;;;11.18;2.25;;;;;;;24.94;37.89;101475.69;5016220;28;20022;-75
2022/08/02 11:22:36;;;;;;;10.55;2.35;;;;;;;25.53;36.35;101485.75;5015648;28;20030;-78
2022/08/02 11:25:25;;;;;;;5.50;1.95;;;;;;;26.14;34.75;101481.53;4999666;28;20033;-75